createdAt,value
2022-09-06T00:02:55.660Z,11.13
2022-09-06T00:08:02.420Z,10.47
2022-09-06T00:13:14.695Z,11.10
2022-09-06T00:18:19.536Z,10.47
2022-09-06T00:23:24.360Z,11.30
2022-09-06T00:28:31.805Z,11.17
2022-09-06T00:33:37.090Z,11.13
2022-09-06T00:38:44.581Z,11.50
2022-09-06T00:43:52.081Z,12.27
2022-09-06T00:49:01.659Z,11.60
2022-09-06T00:54:08.455Z,11.67
2022-09-06T00:59:16.557Z,11.53
2022-09-06T01:04:21.667Z,11.47
2022-09-06T01:09:39.758Z,11.53
2022-09-06T01:15:03.460Z,12.30
2022-09-06T01:20:41.919Z,11.83
2022-09-06T01:26:03.487Z,11.53
2022-09-06T01:31:25.044Z,11.00
2022-09-06T01:36:36.025Z,11.63
2022-09-06T01:41:41.002Z,11.03
2022-09-06T01:46:58.324Z,11.93
2022-09-06T01:52:14.762Z,11.90
2022-09-06T01:57:37.765Z,12.47
2022-09-06T02:02:55.534Z,11.73
2022-09-06T02:08:05.046Z,12.30
2022-09-06T02:13:13.243Z,12.53
2022-09-06T02:18:25.236Z,12.13
2022-09-06T02:23:34.052Z,13.37
2022-09-06T02:28:41.585Z,13.27
2022-09-06T02:33:50.408Z,13.67
2022-09-06T02:38:57.435Z,13.47
2022-09-06T02:44:09.403Z,12.70
2022-09-06T02:49:19.101Z,14.27
2022-09-06T02:54:23.881Z,13.37
2022-09-06T02:59:28.758Z,13.23
2022-09-06T03:04:36.296Z,12.73
2022-09-06T03:09:41.637Z,13.33
2022-09-06T03:14:46.499Z,14.60
2022-09-06T03:19:53.912Z,13.60
2022-09-06T03:25:03.172Z,12.43
2022-09-06T03:30:11.336Z,12.83
2022-09-06T03:35:19.031Z,13.70
2022-09-06T03:40:24.220Z,12.50
2022-09-06T03:45:29.104Z,12.50
2022-09-06T03:50:36.592Z,13.23
2022-09-06T03:55:42.538Z,12.90
2022-09-06T04:00:47.706Z,13.20
2022-09-06T04:05:55.564Z,11.90
2022-09-06T04:11:01.258Z,13.23
2022-09-06T04:16:06.868Z,11.20
2022-09-06T04:21:14.490Z,12.20
2022-09-06T04:26:22.181Z,11.20
2022-09-06T04:31:27.332Z,13.50
2022-09-06T04:36:34.788Z,11.90
2022-09-06T04:41:39.946Z,10.27
2022-09-06T04:46:45.517Z,10.73
2022-09-06T04:51:53.002Z,10.27
2022-09-06T04:56:57.862Z,9.80
2022-09-06T05:02:03.319Z,9.20
2022-09-06T05:07:22.878Z,8.37
2022-09-06T05:12:27.810Z,8.70
2022-09-06T05:17:33.613Z,8.77
2022-09-06T05:22:48.197Z,9.50
2022-09-06T05:27:55.119Z,9.87
2022-09-06T05:33:01.030Z,9.10
2022-09-06T05:38:14.977Z,9.43
2022-09-06T05:43:20.483Z,8.20
2022-09-06T05:48:27.794Z,7.97
2022-09-06T05:53:40.015Z,7.53
2022-09-06T05:59:13.201Z,6.63
2022-09-06T06:04:34.286Z,6.10
2022-09-06T06:09:45.281Z,7.03
2022-09-06T06:14:54.421Z,8.17
2022-09-06T06:20:00.257Z,6.80
2022-09-06T06:25:09.307Z,6.20
2022-09-06T06:30:18.554Z,6.17
2022-09-06T06:35:25.998Z,6.47
2022-09-06T06:40:39.219Z,6.70
2022-09-06T06:45:44.865Z,6.73
2022-09-06T06:50:52.742Z,6.37
2022-09-06T06:56:00.463Z,6.07
2022-09-06T07:01:10.442Z,6.10
2022-09-06T07:06:19.425Z,6.83
2022-09-06T07:11:36.065Z,5.87
2022-09-06T07:16:41.358Z,6.27
2022-09-06T07:21:46.522Z,6.03
2022-09-06T07:32:25.947Z,5.57
2022-09-06T07:37:36.847Z,6.13
2022-09-06T07:42:51.823Z,6.27
2022-09-06T07:47:59.333Z,6.13
2022-09-06T07:53:11.299Z,5.80
2022-09-06T07:58:27.055Z,5.97
2022-09-06T08:03:34.307Z,5.07
2022-09-06T08:08:58.766Z,6.00
2022-09-06T08:14:10.514Z,5.60
2022-09-06T08:19:18.831Z,5.77
2022-09-06T08:24:28.096Z,5.30
2022-09-06T08:29:36.773Z,6.20
2022-09-06T08:34:45.084Z,5.17
2022-09-06T08:39:52.438Z,5.80
2022-09-06T08:45:04.017Z,5.50
2022-09-06T08:50:12.439Z,5.73
2022-09-06T08:55:35.485Z,5.10
2022-09-06T09:00:53.521Z,5.50
2022-09-06T09:06:00.304Z,5.50
2022-09-06T09:11:10.856Z,5.43
2022-09-06T09:16:23.353Z,5.10
2022-09-06T09:21:31.955Z,5.97
2022-09-06T09:26:44.504Z,4.63
2022-09-06T09:31:57.394Z,5.63
2022-09-06T09:42:47.742Z,5.80
2022-09-06T09:47:55.478Z,5.17
2022-09-06T09:53:11.102Z,5.33
2022-09-06T09:58:33.950Z,5.20
2022-09-06T10:09:23.760Z,4.83
2022-09-06T10:14:34.205Z,6.10
2022-09-06T10:19:47.793Z,5.77
2022-09-06T10:25:26.001Z,5.47
2022-09-06T10:30:34.896Z,5.97
2022-09-06T10:35:43.563Z,5.70
2022-09-06T10:41:03.557Z,5.30
2022-09-06T10:46:14.765Z,5.63
2022-09-06T10:51:40.759Z,5.77
2022-09-06T10:56:53.764Z,5.43
2022-09-06T11:02:13.867Z,5.57
2022-09-06T11:07:28.796Z,5.73
2022-09-06T11:12:41.097Z,6.93
2022-09-06T11:17:52.676Z,5.10
2022-09-06T11:23:26.714Z,5.60
2022-09-06T11:28:38.816Z,5.70
2022-09-06T11:33:44.393Z,5.63
2022-09-06T11:39:11.729Z,5.03
2022-09-06T11:44:52.388Z,4.80
2022-09-06T11:49:57.546Z,5.27
2022-09-06T11:55:07.015Z,4.70
2022-09-06T12:00:24.280Z,5.13
2022-09-06T12:05:32.446Z,5.13
2022-09-06T12:11:01.284Z,4.80
2022-09-06T12:16:06.664Z,5.43
2022-09-06T12:21:15.065Z,5.00
2022-09-06T12:26:55.757Z,5.07
2022-09-06T12:32:04.879Z,4.73
2022-09-06T12:37:17.559Z,4.70
2022-09-06T12:49:02.206Z,4.90
2022-09-06T12:54:55.794Z,4.50
2022-09-06T13:00:11.873Z,4.37
2022-09-06T13:05:54.118Z,4.30
2022-09-06T13:11:27.029Z,4.80
2022-09-06T13:23:06.473Z,4.93
2022-09-06T13:28:51.290Z,4.80
2022-09-06T13:34:05.990Z,4.30
2022-09-06T13:39:12.560Z,4.77
2022-09-06T13:44:22.874Z,4.47
2022-09-06T13:49:31.777Z,4.60
2022-09-06T13:54:37.306Z,4.50
2022-09-06T13:59:44.076Z,4.67
2022-09-06T14:04:51.563Z,4.20
2022-09-06T14:09:57.059Z,3.70
2022-09-06T14:15:02.142Z,5.17
2022-09-06T14:20:12.500Z,5.47
2022-09-06T14:25:17.726Z,6.67
2022-09-06T14:30:22.763Z,7.77
2022-09-06T14:35:30.580Z,8.40
2022-09-06T14:40:38.187Z,7.87
2022-09-06T14:45:43.247Z,8.07
2022-09-06T14:50:51.090Z,8.50
2022-09-06T14:55:56.243Z,8.40
2022-09-06T15:01:13.365Z,9.37
2022-09-06T15:06:22.817Z,10.57
2022-09-06T15:11:34.772Z,11.07
2022-09-06T15:16:40.005Z,11.60
2022-09-06T15:21:47.823Z,11.83
2022-09-06T15:26:53.064Z,12.33
2022-09-06T15:31:58.442Z,11.77
2022-09-06T15:37:07.536Z,12.67
2022-09-06T15:42:12.636Z,11.90
2022-09-06T15:47:17.780Z,13.63
2022-09-06T15:52:25.496Z,12.50
2022-09-06T15:57:31.180Z,13.67
2022-09-06T16:02:36.260Z,14.87
2022-09-06T16:07:44.830Z,14.97
2022-09-06T16:12:50.672Z,14.30
2022-09-06T16:17:58.971Z,14.00
2022-09-06T16:23:09.446Z,15.10
2022-09-06T16:28:14.665Z,13.63
2022-09-06T16:33:19.551Z,14.47
2022-09-06T16:38:27.355Z,14.83
2022-09-06T16:43:36.203Z,14.17
2022-09-06T16:48:43.297Z,12.83
2022-09-06T16:53:52.151Z,13.47
2022-09-06T16:59:00.268Z,13.67
2022-09-06T17:04:06.905Z,14.83
2022-09-06T17:09:15.203Z,14.73
2022-09-06T17:14:20.567Z,16.43
2022-09-06T17:19:25.700Z,14.87
2022-09-06T17:24:33.722Z,14.97
2022-09-06T17:29:40.521Z,14.23
2022-09-06T17:34:45.470Z,13.00
2022-09-06T17:39:53.258Z,9.30
2022-09-06T17:44:58.466Z,6.47
2022-09-06T17:50:03.538Z,6.40
2022-09-06T17:55:12.041Z,5.73
2022-09-06T18:00:18.499Z,5.73
2022-09-06T18:05:24.990Z,5.10
2022-09-06T18:10:35.879Z,5.10
2022-09-06T18:15:43.761Z,5.17
2022-09-06T18:20:50.311Z,5.77
2022-09-06T18:26:08.181Z,6.60
2022-09-06T18:31:16.017Z,7.63
2022-09-06T18:36:22.476Z,8.20
2022-09-06T18:41:42.580Z,9.67
2022-09-06T18:46:47.669Z,10.20
2022-09-06T18:51:52.932Z,10.50
2022-09-06T18:57:01.216Z,10.40
2022-09-06T19:02:06.512Z,9.57
2022-09-06T19:07:11.604Z,10.20
2022-09-06T19:12:19.324Z,11.13
2022-09-06T19:17:24.478Z,11.53
2022-09-06T19:22:29.683Z,12.33
2022-09-06T19:27:37.514Z,12.07
2022-09-06T19:32:42.698Z,11.00
2022-09-06T19:37:50.102Z,11.80
2022-09-06T19:42:58.577Z,11.90
2022-09-06T19:48:03.638Z,12.13
2022-09-06T19:53:08.799Z,10.83
2022-09-06T19:58:16.514Z,12.37
2022-09-06T20:03:21.735Z,12.80
2022-09-06T20:08:27.116Z,12.03
2022-09-06T20:13:37.804Z,12.83
2022-09-06T20:18:43.543Z,12.30
2022-09-06T20:23:52.367Z,12.30
2022-09-06T20:29:01.794Z,13.50
2022-09-06T20:34:08.166Z,12.67
2022-09-06T20:39:14.880Z,12.07
2022-09-06T20:44:22.644Z,13.17
2022-09-06T20:49:27.606Z,13.23
2022-09-06T20:54:33.094Z,13.73
2022-09-06T20:59:40.567Z,13.07
2022-09-06T21:04:45.539Z,12.57
2022-09-06T21:09:50.456Z,13.27
2022-09-06T21:14:58.139Z,13.57
2022-09-06T21:20:03.303Z,13.77
2022-09-06T21:25:09.210Z,12.70
2022-09-06T21:30:17.633Z,12.70
2022-09-06T21:35:22.518Z,12.77
2022-09-06T21:40:27.865Z,13.97
2022-09-06T21:45:40.313Z,13.30
2022-09-06T21:50:48.128Z,14.00
2022-09-06T21:55:53.225Z,13.47
2022-09-06T22:01:02.117Z,13.43
2022-09-06T22:06:12.007Z,13.77
2022-09-06T22:11:18.848Z,14.30
2022-09-06T22:16:27.522Z,13.00
2022-09-06T22:21:32.614Z,13.73
2022-09-06T22:26:38.855Z,13.80
2022-09-06T22:31:46.443Z,13.83
2022-09-06T22:36:52.728Z,12.43
2022-09-06T22:42:00.874Z,13.20
2022-09-06T22:47:08.666Z,12.20
2022-09-06T22:52:13.606Z,12.90
2022-09-06T22:57:18.775Z,14.23
2022-09-06T23:02:26.224Z,13.20
2022-09-06T23:07:31.954Z,13.73
2022-09-06T23:12:36.908Z,14.43
2022-09-06T23:17:44.568Z,13.27
2022-09-06T23:22:50.640Z,13.67
2022-09-06T23:27:56.059Z,13.13
2022-09-06T23:33:03.628Z,13.90
2022-09-06T23:38:09.533Z,14.60
2022-09-06T23:43:14.552Z,14.47
2022-09-06T23:48:22.146Z,14.47
2022-09-06T23:53:27.145Z,15.07
2022-09-06T23:58:32.411Z,14.33
